Time;durP1;ratioP1;P1;durP2;ratioP2;P2;SDS_P1;SDS_P2;PMS_P1;PMS_P2;Temp;Humidity;BMP_temperature;BMP_pressure;BME280_temperature;BME280_humidity;BME280_pressure;Samples;Min_cycle;Max_cycle;Signal;HPM_P1;HPM_P2
2021/12/04 00:02:06;;;;;;;41.60;20.08;;;5.70;99.90;;;;;;5069344;28;20657;-79
2021/12/04 00:04:37;;;;;;;39.88;21.88;;;7.20;99.90;;;;;;5086770;28;20048;-80
2021/12/04 00:07:09;;;;;;;43.08;22.55;;;7.60;99.90;;;;;;5081840;28;20060;-79
2021/12/04 00:09:38;;;;;;;45.13;25.63;;;5.60;99.90;;;;;;5063756;28;20052;-78
2021/12/04 00:12:08;;;;;;;46.97;21.95;;;5.50;99.90;;;;;;5068662;28;20052;-77
2021/12/04 00:14:41;;;;;;;41.75;24.02;;;5.50;99.90;;;;;;5050706;28;20063;-78
2021/12/04 00:17:10;;;;;;;42.13;23.67;;;5.40;99.90;;;;;;5080790;28;20048;-80
2021/12/04 00:19:38;;;;;;;48.75;22.92;;;5.40;99.90;;;;;;5066999;28;20036;-79
2021/12/04 00:22:07;;;;;;;37.55;22.00;;;5.30;99.90;;;;;;5061629;28;20032;-79
2021/12/04 00:24:36;;;;;;;43.55;22.88;;;5.70;99.90;;;;;;5082581;28;20047;-79
2021/12/04 00:27:16;;;;;;;41.17;20.08;;;7.30;99.90;;;;;;5082838;28;20535;-78
2021/12/04 00:29:46;;;;;;;37.20;20.20;;;7.00;99.90;;;;;;5082910;28;20045;-80
2021/12/04 00:32:40;;;;;;;41.00;20.27;;;5.10;99.90;;;;;;5085863;28;20311;-77
2021/12/04 00:35:32;;;;;;;42.85;22.67;;;5.70;99.90;;;;;;5083242;28;20075;-80
2021/12/04 00:49:05;;;;;;;35.03;20.85;;;4.90;99.90;;;;;;5079249;28;20041;-79
2021/12/04 00:49:12;;;;;;;38.63;20.67;;;4.80;99.90;;;;;;5064295;28;20049;-79
2021/12/04 00:51:53;;;;;;;37.42;19.48;;;4.70;99.90;;;;;;5070697;28;20310;-81
2021/12/04 00:54:28;;;;;;;33.15;16.98;;;4.70;99.90;;;;;;5080594;28;20056;-79
2021/12/04 00:56:56;;;;;;;39.45;21.58;;;6.60;99.90;;;;;;5081497;28;20373;-80
2021/12/04 00:59:24;;;;;;;42.17;22.95;;;4.70;99.90;;;;;;5065989;28;20064;-80
2021/12/04 01:01:54;;;;;;;36.03;17.83;;;4.70;99.90;;;;;;5081802;28;20063;-78
2021/12/04 01:04:31;;;;;;;40.88;20.00;;;4.80;99.90;;;;;;5066362;28;20056;-79
2021/12/04 01:07:06;;;;;;;38.75;19.23;;;4.80;99.90;;;;;;5046702;28;20056;-79
2021/12/04 01:09:35;;;;;;;39.42;17.80;;;4.50;99.90;;;;;;5084366;28;20053;-79
2021/12/04 01:12:04;;;;;;;42.45;20.60;;;4.40;99.90;;;;;;5084206;28;20040;-78
2021/12/04 01:14:32;;;;;;;42.40;22.38;;;4.40;99.90;;;;;;5057223;28;20048;-79
2021/12/04 01:17:03;;;;;;;41.22;22.10;;;4.40;99.90;;;;;;5100086;28;20509;-81
2021/12/04 01:19:33;;;;;;;40.67;20.33;;;4.30;99.90;;;;;;5061730;28;20040;-80
2021/12/04 01:22:03;;;;;;;34.33;16.95;;;4.90;99.90;;;;;;5096812;28;20040;-81
2021/12/04 01:24:32;;;;;;;28.70;16.10;;;4.40;99.90;;;;;;5063443;28;20052;-82
2021/12/04 01:27:00;;;;;;;32.75;15.98;;;4.30;99.90;;;;;;5050501;28;20050;-82
2021/12/04 01:29:37;;;;;;;38.05;19.10;;;4.30;99.90;;;;;;5071179;28;20060;-78
2021/12/04 01:32:08;;;;;;;39.75;18.65;;;4.30;99.90;;;;;;5071524;28;20052;-81
2021/12/04 01:34:38;;;;;;;38.63;17.20;;;4.30;99.90;;;;;;5086890;28;20053;-78
2021/12/04 01:37:08;;;;;;;38.38;19.15;;;4.20;99.90;;;;;;5072245;28;20048;-80
2021/12/04 01:39:37;;;;;;;39.70;19.30;;;5.40;99.90;;;;;;5053401;28;20052;-79
2021/12/04 01:42:05;;;;;;;39.88;18.70;;;2.90;99.90;;;;;;5051510;28;20065;-79
2021/12/04 01:44:43;;;;;;;41.63;21.02;;;4.10;99.90;;;;;;5090819;28;20167;-79
2021/12/04 01:47:19;;;;;;;33.88;18.75;;;4.10;99.90;;;;;;5086792;28;20052;-80
2021/12/04 01:49:49;;;;;;;38.03;22.58;;;4.00;99.90;;;;;;5085778;28;20037;-79
2021/12/04 01:52:18;;;;;;;43.15;21.25;;;4.00;99.90;;;;;;5066223;28;20067;-79
2021/12/04 01:54:50;;;;;;;37.78;20.48;;;4.00;99.90;;;;;;5065979;28;20041;-79
2021/12/04 01:57:20;;;;;;;32.60;17.92;;;3.90;99.90;;;;;;5061196;28;20060;-79
2021/12/04 01:59:50;;;;;;;37.10;19.25;;;3.90;99.90;;;;;;5062026;28;20041;-80
2021/12/04 02:02:18;;;;;;;41.38;22.17;;;3.90;99.90;;;;;;5071969;28;20048;-77
2021/12/04 02:04:47;;;;;;;36.35;19.30;;;3.90;99.90;;;;;;5069991;28;20467;-78
2021/12/04 02:07:19;;;;;;;39.78;19.17;;;3.90;99.90;;;;;;5053621;28;20048;-79
2021/12/04 02:09:49;;;;;;;42.58;22.60;;;3.90;99.90;;;;;;5065529;28;20067;-78
2021/12/04 02:12:18;;;;;;;32.95;17.42;;;3.90;99.90;;;;;;5068806;28;20059;-81
2021/12/04 02:14:48;;;;;;;39.75;21.65;;;3.80;99.90;;;;;;5085641;28;20059;-79
2021/12/04 02:17:16;;;;;;;41.78;21.40;;;3.80;99.90;;;;;;5085485;28;20056;-80
2021/12/04 02:19:47;;;;;;;40.58;19.13;;;4.50;99.90;;;;;;5095238;28;20048;-79
2021/12/04 02:22:16;;;;;;;36.65;17.92;;;4.50;99.90;;;;;;5077949;28;20067;-80
2021/12/04 02:24:50;;;;;;;38.35;22.70;;;4.50;99.90;;;;;;5084550;28;20431;-80
2021/12/04 02:27:18;;;;;;;34.47;15.27;;;3.80;99.90;;;;;;5084728;28;20053;-79
2021/12/04 02:29:49;;;;;;;39.83;19.63;;;3.60;99.90;;;;;;5069205;28;20045;-80
2021/12/04 02:32:20;;;;;;;32.33;16.38;;;3.70;99.90;;;;;;5085443;28;20047;-82
2021/12/04 02:34:54;;;;;;;33.72;16.75;;;3.90;99.90;;;;;;5048922;28;20053;-80
2021/12/04 02:37:22;;;;;;;36.85;16.00;;;3.70;99.90;;;;;;5075890;28;20512;-79
2021/12/04 02:39:58;;;;;;;39.22;19.08;;;3.70;99.90;;;;;;5064507;28;20044;-80
2021/12/04 02:42:30;;;;;;;30.98;15.93;;;3.70;99.90;;;;;;5069061;28;20044;-78
2021/12/04 02:45:03;;;;;;;31.63;15.82;;;3.60;99.90;;;;;;5084230;28;20040;-79
2021/12/04 02:47:34;;;;;;;28.63;14.43;;;5.70;99.90;;;;;;5084817;28;20052;-80
2021/12/04 02:50:07;;;;;;;28.30;14.73;;;4.60;99.90;;;;;;5070068;28;20051;-79
2021/12/04 02:52:46;;;;;;;33.33;16.58;;;3.50;99.90;;;;;;5089097;28;20056;-80
2021/12/04 02:55:20;;;;;;;28.90;14.85;;;3.50;99.90;;;;;;5068761;28;20056;-81
2021/12/04 02:57:50;;;;;;;30.13;15.00;;;5.20;99.90;;;;;;5086485;28;20044;-80
2021/12/04 03:00:23;;;;;;;30.63;13.77;;;3.50;99.90;;;;;;5051852;28;20485;-81
2021/12/04 03:02:59;;;;;;;26.33;15.18;;;3.50;99.90;;;;;;5086224;28;20773;-80
2021/12/04 03:05:29;;;;;;;23.25;13.32;;;3.50;99.90;;;;;;5063752;28;20045;-79
2021/12/04 03:07:59;;;;;;;30.10;14.05;;;3.60;99.90;;;;;;5068186;28;20053;-79
2021/12/04 03:10:29;;;;;;;24.67;13.25;;;4.70;99.90;;;;;;5069383;28;20041;-80
2021/12/04 03:12:57;;;;;;;21.85;10.82;;;3.50;99.90;;;;;;5060354;28;20036;-79
2021/12/04 03:15:28;;;;;;;30.08;13.90;;;3.60;99.90;;;;;;5075153;28;20040;-80
2021/12/04 03:17:58;;;;;;;30.83;12.85;;;3.60;99.90;;;;;;5071129;28;20049;-80
2021/12/04 03:20:26;;;;;;;21.95;10.32;;;3.60;99.90;;;;;;5069298;28;20048;-79
2021/12/04 03:22:59;;;;;;;28.33;14.35;;;3.70;99.90;;;;;;5093304;28;20045;-80
2021/12/04 03:25:28;;;;;;;21.65;13.23;;;3.80;99.90;;;;;;5085935;28;20373;-80
2021/12/04 03:27:56;;;;;;;24.92;12.02;;;3.80;99.90;;;;;;5070483;28;20053;-79
2021/12/04 03:30:38;;;;;;;24.48;11.63;;;4.00;99.90;;;;;;5069583;28;20062;-78
2021/12/04 03:41:11;;;;;;;23.92;12.75;;;4.00;99.90;;;;;;5088825;28;20036;-78
2021/12/04 03:43:44;;;;;;;25.52;12.10;;;4.00;99.90;;;;;;5084986;28;20049;-79
2021/12/04 03:46:15;;;;;;;28.38;12.73;;;5.60;99.90;;;;;;5085963;28;20046;-80
2021/12/04 03:51:14;;;;;;;26.48;14.07;;;4.20;99.90;;;;;;5085071;28;20048;-79
2021/12/04 03:53:44;;;;;;;27.40;14.02;;;4.20;99.90;;;;;;5082674;28;20066;-81
2021/12/04 03:56:15;;;;;;;30.77;14.82;;;2.90;99.90;;;;;;5086858;28;20044;-80
2021/12/04 03:58:44;;;;;;;26.42;13.40;;;4.20;99.90;;;;;;5086632;28;20048;-80
2021/12/04 04:01:12;;;;;;;29.98;15.23;;;4.10;99.90;;;;;;5096288;28;20046;-78
2021/12/04 04:03:40;;;;;;;33.70;17.15;;;4.10;99.90;;;;;;5085984;28;20045;-81
2021/12/04 04:06:09;;;;;;;26.30;15.77;;;4.10;99.90;;;;;;5072100;28;20058;-78
2021/12/04 04:08:37;;;;;;;27.25;13.43;;;4.10;99.90;;;;;;5086712;28;20045;-79
2021/12/04 04:11:05;;;;;;;28.38;14.13;;;4.00;99.90;;;;;;5067837;28;20052;-79
2021/12/04 04:13:34;;;;;;;28.27;15.35;;;6.40;99.90;;;;;;5050202;28;20059;-78
2021/12/04 04:16:04;;;;;;;32.40;14.38;;;4.60;99.90;;;;;;5051493;28;20057;-79
2021/12/04 04:18:33;;;;;;;29.85;15.45;;;4.00;99.90;;;;;;5091474;28;20055;-80
2021/12/04 04:21:02;;;;;;;31.58;16.10;;;4.00;99.90;;;;;;5069812;28;20053;-79
2021/12/04 04:23:33;;;;;;;30.73;15.65;;;4.50;99.90;;;;;;5083699;28;20048;-79
2021/12/04 04:26:02;;;;;;;29.90;14.23;;;3.70;99.90;;;;;;5089277;28;20036;-80
2021/12/04 04:28:31;;;;;;;27.70;14.63;;;5.20;99.90;;;;;;5043247;28;20292;-79
2021/12/04 04:31:00;;;;;;;28.00;13.95;;;4.20;99.90;;;;;;5050149;28;20045;-77
2021/12/04 04:33:30;;;;;;;30.23;13.70;;;4.30;99.90;;;;;;5083294;28;20052;-77
2021/12/04 04:36:09;;;;;;;29.95;14.57;;;4.40;99.90;;;;;;5067275;28;20055;-80
2021/12/04 04:38:46;;;;;;;29.08;16.20;;;4.30;99.90;;;;;;5083080;28;20045;-78
2021/12/04 05:01:23;;;;;;;26.63;13.05;;;5.40;99.90;;;;;;5073054;28;20449;-77
2021/12/04 05:14:45;;;;;;;26.17;13.38;;;5.10;99.90;;;;;;5072299;28;20066;-78
2021/12/04 05:20:07;;;;;;;31.65;16.42;;;5.00;99.90;;;;;;5044946;28;20057;-78
2021/12/04 05:22:36;;;;;;;30.42;14.02;;;5.10;99.90;;;;;;5085201;28;20052;-80
2021/12/04 05:25:13;;;;;;;35.13;16.55;;;5.20;99.90;;;;;;5084454;28;20060;-80
2021/12/04 05:28:16;;;;;;;28.98;13.30;;;5.10;99.90;;;;;;5106075;28;20055;-79
2021/12/04 05:30:44;;;;;;;30.23;14.95;;;5.20;99.90;;;;;;5079468;28;20053;-79
2021/12/04 05:33:13;;;;;;;24.58;12.75;;;5.30;99.90;;;;;;5084556;28;20044;-80
2021/12/04 05:35:48;;;;;;;26.67;13.65;;;5.30;99.90;;;;;;5083242;28;20055;-78
2021/12/04 05:38:20;;;;;;;27.42;13.68;;;5.40;99.90;;;;;;5084434;28;20063;-78
2021/12/04 05:40:59;;;;;;;26.00;12.65;;;5.90;99.90;;;;;;5083842;28;20051;-80
2021/12/04 05:43:28;;;;;;;27.52;13.43;;;5.60;99.90;;;;;;5083129;28;20052;-79
2021/12/04 05:46:09;;;;;;;26.67;14.23;;;5.60;99.90;;;;;;5086632;28;20043;-78
2021/12/04 05:48:52;;;;;;;25.25;12.45;;;6.40;99.90;;;;;;5087638;28;20048;-79
2021/12/04 05:57:12;;;;;;;24.92;11.90;;;6.10;99.90;;;;;;5073711;28;20298;-79
2021/12/04 05:59:40;;;;;;;27.23;13.70;;;6.30;99.90;;;;;;5084327;28;20048;-81
2021/12/04 06:02:08;;;;;;;26.98;12.95;;;6.30;99.90;;;;;;5064438;28;20045;-80
2021/12/04 06:04:50;;;;;;;26.00;12.10;;;6.30;99.90;;;;;;5065412;28;20044;-79
2021/12/04 06:07:28;;;;;;;28.52;11.80;;;6.50;99.90;;;;;;5079442;28;20056;-80
2021/12/04 06:09:56;;;;;;;;;;;6.70;99.90;;;;;;5048795;28;20044;-82
2021/12/04 06:12:27;;;;;;;24.52;12.75;;;7.70;99.90;;;;;;5083062;28;20371;-79
2021/12/04 06:14:56;;;;;;;23.02;11.43;;;6.90;99.90;;;;;;5084690;28;20342;-78
2021/12/04 06:17:25;;;;;;;21.40;10.38;;;5.70;99.90;;;;;;5085874;28;20055;-79
2021/12/04 06:22:44;;;;;;;25.83;11.30;;;6.90;99.90;;;;;;5087612;28;20045;-79
2021/12/04 06:25:15;;;;;;;24.58;11.77;;;6.90;99.90;;;;;;5087812;28;20063;-77
2021/12/04 06:27:45;;;;;;;21.95;12.23;;;7.00;99.90;;;;;;5074619;28;20054;-77
2021/12/04 06:30:42;;;;;;;25.77;12.48;;;7.00;99.90;;;;;;5090338;28;20059;-80
2021/12/04 06:33:15;;;;;;;23.20;13.82;;;7.00;99.90;;;;;;5085615;28;20044;-79
2021/12/04 06:35:47;;;;;;;23.10;11.45;;;7.10;99.90;;;;;;5087125;28;20060;-80
2021/12/04 06:38:18;;;;;;;20.45;11.27;;;7.00;99.90;;;;;;5076393;28;20058;-78
2021/12/04 06:40:48;;;;;;;20.67;11.07;;;7.80;99.90;;;;;;5084321;28;20068;-78
2021/12/04 06:43:17;;;;;;;20.83;12.48;;;9.20;99.90;;;;;;5083284;28;20040;-78
2021/12/04 06:45:55;;;;;;;19.67;9.07;;;7.00;99.90;;;;;;5085525;28;20048;-78
2021/12/04 06:48:28;;;;;;;23.77;12.85;;;7.00;99.90;;;;;;5080010;28;20055;-80
2021/12/04 06:51:06;;;;;;;24.17;13.18;;;7.10;99.90;;;;;;5083205;28;20059;-79
2021/12/04 06:53:43;;;;;;;23.80;12.68;;;7.60;99.90;;;;;;5066518;28;20087;-80
2021/12/04 06:56:12;;;;;;;23.77;11.52;;;7.10;99.90;;;;;;5085771;28;20049;-79
2021/12/04 06:58:42;;;;;;;35.15;16.10;;;7.10;99.90;;;;;;5070204;28;20051;-79
2021/12/04 07:01:10;;;;;;;25.08;12.32;;;7.10;99.90;;;;;;5085194;28;20059;-80
2021/12/04 07:03:43;;;;;;;22.00;10.57;;;7.10;99.90;;;;;;5067799;28;20040;-80
2021/12/04 07:06:14;;;;;;;23.23;12.25;;;7.00;99.90;;;;;;5084555;28;20476;-79
2021/12/04 07:08:42;;;;;;;25.30;12.73;;;7.10;99.90;;;;;;5069463;28;20047;-79
2021/12/04 07:11:10;;;;;;;22.02;12.38;;;7.10;99.90;;;;;;5083542;28;20055;-79
2021/12/04 07:13:39;;;;;;;26.92;11.75;;;7.10;99.90;;;;;;5066084;28;20051;-80
2021/12/04 07:16:47;;;;;;;27.80;13.10;;;7.10;99.90;;;;;;5083658;28;20048;-81
2021/12/04 07:19:16;;;;;;;22.08;11.50;;;7.10;99.90;;;;;;5084487;28;20044;-79
2021/12/04 07:21:47;;;;;;;21.98;11.95;;;7.10;99.90;;;;;;5084342;28;20036;-78
2021/12/04 07:24:19;;;;;;;25.98;12.27;;;7.00;99.90;;;;;;5078730;28;20123;-79
2021/12/04 07:26:56;;;;;;;22.88;11.77;;;7.10;99.90;;;;;;5075062;28;20056;-81
2021/12/04 07:29:26;;;;;;;21.83;12.13;;;7.00;99.90;;;;;;5083161;28;20040;-82
2021/12/04 07:32:04;;;;;;;25.55;11.77;;;7.00;99.90;;;;;;5055410;28;20067;-80
2021/12/04 07:34:38;;;;;;;24.75;13.10;;;7.00;99.90;;;;;;5086412;28;20222;-80
2021/12/04 07:37:11;;;;;;;23.13;12.15;;;7.00;99.90;;;;;;5069470;28;20548;-80
2021/12/04 07:40:11;;;;;;;21.65;12.20;;;7.20;99.90;;;;;;5050775;28;20044;-80
2021/12/04 07:42:46;;;;;;;20.63;10.05;;;6.90;99.90;;;;;;5081512;28;20036;-78
2021/12/04 07:45:19;;;;;;;21.35;9.90;;;7.00;99.90;;;;;;5069840;28;20036;-80
2021/12/04 07:47:47;;;;;;;22.23;10.50;;;8.70;99.90;;;;;;5084652;28;20449;-80
2021/12/04 07:50:16;;;;;;;16.95;8.32;;;7.00;99.90;;;;;;5081318;28;20044;-79
2021/12/04 07:52:58;;;;;;;20.52;8.38;;;7.10;99.90;;;;;;5063087;28;20144;-80
2021/12/04 07:55:43;;;;;;;18.75;10.60;;;7.00;99.90;;;;;;5074743;28;20052;-81
2021/12/04 07:58:22;;;;;;;19.48;8.77;;;6.90;99.90;;;;;;5066216;28;20052;-81
2021/12/04 08:00:51;;;;;;;19.00;9.95;;;6.90;99.90;;;;;;5082573;28;20049;-77
2021/12/04 08:03:30;;;;;;;;;;;;;;;;;;;;;
2021/12/04 08:06:04;;;;;;;16.55;7.15;;;6.90;99.90;;;;;;5051525;28;20056;-79
2021/12/04 08:08:43;;;;;;;17.05;9.70;;;6.90;99.90;;;;;;5062923;28;20048;-81
2021/12/04 08:11:14;;;;;;;19.30;7.25;;;6.90;99.90;;;;;;5073703;28;20045;-79
2021/12/04 08:13:47;;;;;;;17.67;7.35;;;6.90;99.90;;;;;;5082937;28;20055;-80
2021/12/04 08:16:24;;;;;;;15.45;7.65;;;6.80;99.90;;;;;;5082972;28;20045;-79
2021/12/04 08:19:00;;;;;;;19.73;7.30;;;6.90;99.90;;;;;;5081587;28;20040;-81
2021/12/04 08:21:40;;;;;;;19.52;8.30;;;6.80;99.90;;;;;;5083325;28;21563;-79
2021/12/04 08:24:09;;;;;;;19.13;8.10;;;6.90;99.90;;;;;;5073296;28;20063;-78
2021/12/04 08:26:39;;;;;;;23.20;8.32;;;6.80;99.90;;;;;;5074437;28;20032;-81
2021/12/04 08:29:07;;;;;;;17.15;7.35;;;6.80;99.90;;;;;;5075354;28;20056;-81
2021/12/04 08:31:37;;;;;;;14.30;7.20;;;6.80;99.90;;;;;;5077976;28;20041;-81
2021/12/04 08:34:07;;;;;;;18.23;8.93;;;6.70;99.90;;;;;;5078405;28;20580;-76
2021/12/04 08:36:35;;;;;;;14.73;5.75;;;6.70;99.90;;;;;;5077424;28;20055;-77
2021/12/04 08:39:06;;;;;;;13.38;6.38;;;6.70;99.90;;;;;;5061201;28;20052;-77
2021/12/04 08:41:34;;;;;;;8.02;5.53;;;6.70;99.90;;;;;;5079422;28;20044;-77
2021/12/04 08:44:03;;;;;;;14.45;6.35;;;6.70;99.90;;;;;;5059147;28;20054;-78
2021/12/04 08:46:34;;;;;;;18.73;5.45;;;6.60;99.90;;;;;;5076182;28;20044;-78
2021/12/04 08:49:05;;;;;;;;;;;6.60;99.90;;;;;;5077037;28;20051;-81
2021/12/04 08:51:35;;;;;;;14.20;5.65;;;6.60;99.90;;;;;;5078845;28;19920;-78
2021/12/04 08:54:04;;;;;;;12.98;5.38;;;6.50;99.90;;;;;;5059453;28;20052;-77
2021/12/04 08:56:34;;;;;;;10.23;5.33;;;6.50;99.90;;;;;;5079091;28;20424;-77
2021/12/04 08:59:07;;;;;;;12.13;7.47;;;6.60;99.90;;;;;;5060497;28;20304;-77
2021/12/04 09:01:38;;;;;;;11.10;4.95;;;7.00;99.90;;;;;;5061152;28;20055;-77
2021/12/04 09:04:09;;;;;;;;;;;6.40;99.90;;;;;;5074331;28;20062;-78
2021/12/04 09:06:38;;;;;;;15.07;5.57;;;6.40;99.90;;;;;;5056799;28;19936;-76
2021/12/04 09:09:14;;;;;;;11.55;4.15;;;6.30;99.90;;;;;;5077988;28;20574;-76
2021/12/04 09:11:46;;;;;;;10.68;4.78;;;6.30;99.90;;;;;;5077957;28;20045;-78
2021/12/04 09:14:18;;;;;;;11.70;4.28;;;6.40;99.90;;;;;;5074803;28;20147;-76
2021/12/04 09:16:49;;;;;;;13.05;4.28;;;6.30;99.90;;;;;;5073728;28;20051;-79
2021/12/04 09:19:23;;;;;;;10.10;3.67;;;6.20;99.90;;;;;;5074798;28;20036;-76
2021/12/04 09:21:52;;;;;;;9.43;3.28;;;6.20;99.90;;;;;;5077566;28;20061;-76
2021/12/04 09:24:36;;;;;;;12.02;3.67;;;6.30;99.90;;;;;;5075810;28;20049;-78
2021/12/04 09:59:09;;;;;;;11.88;6.45;;;6.40;99.90;;;;;;5064785;28;20164;-80
2021/12/04 10:00:34;;;;;;;14.50;3.35;;;6.50;99.90;;;;;;5085793;28;20040;-79
2021/12/04 10:17:12;;;;;;;11.77;4.10;;;6.70;99.90;;;;;;5084412;28;20049;-79
2021/12/04 10:32:02;;;;;;;14.00;4.17;;;7.20;99.90;;;;;;5069780;28;20055;-79
2021/12/04 10:34:08;;;;;;;8.77;3.55;;;6.50;99.90;;;;;;5051602;28;20061;-79
2021/12/04 10:36:40;;;;;;;23.52;3.63;;;6.70;99.90;;;;;;5070743;28;20060;-80
2021/12/04 10:39:11;;;;;;;12.32;2.97;;;6.50;99.90;;;;;;5078082;28;20051;-80
2021/12/04 10:41:43;;;;;;;7.13;3.38;;;6.70;99.90;;;;;;5050511;28;20053;-79
2021/12/04 10:44:28;;;;;;;7.80;3.38;;;6.80;99.90;;;;;;5050712;28;20056;-80
2021/12/04 10:47:15;;;;;;;10.25;2.95;;;6.80;99.90;;;;;;5064988;28;20076;-79
2021/12/04 10:52:52;;;;;;;20.00;4.35;;;6.80;99.90;;;;;;5049302;28;20049;-80
2021/12/04 10:55:58;;;;;;;17.98;2.97;;;6.90;99.90;;;;;;5048921;28;20057;-81
2021/12/04 11:04:39;;;;;;;17.50;4.22;;;7.00;99.90;;;;;;5078555;28;20044;-80
2021/12/04 11:07:33;;;;;;;6.40;2.50;;;7.00;99.90;;;;;;5074826;28;20051;-81
2021/12/04 11:27:20;;;;;;;10.60;2.70;;;7.00;99.90;;;;;;5068808;28;20040;-79
2021/12/04 11:46:42;;;;;;;9.90;2.65;;;7.30;99.90;;;;;;5083273;28;20056;-80
2021/12/04 11:49:13;;;;;;;17.65;4.55;;;7.30;99.90;;;;;;5085507;28;20051;-79
2021/12/04 11:52:07;;;;;;;6.43;2.70;;;7.20;99.90;;;;;;5083803;28;20059;-80
2021/12/04 11:55:01;;;;;;;9.35;2.80;;;5.80;99.90;;;;;;5049921;28;20066;-80
2021/12/04 11:57:37;;;;;;;11.80;3.15;;;7.50;99.90;;;;;;5066843;28;20048;-79
2021/12/04 12:00:42;;;;;;;;;;;;;;;;;;;;;
2021/12/04 12:03:21;;;;;;;14.75;3.17;;;7.30;99.90;;;;;;5084229;28;20044;-82
2021/12/04 12:05:58;;;;;;;7.13;2.65;;;7.40;99.90;;;;;;5063038;28;20076;-80
2021/12/04 12:08:45;;;;;;;10.60;3.28;;;7.30;99.90;;;;;;5051574;28;20339;-80
2021/12/04 12:11:29;;;;;;;12.75;2.83;;;7.40;99.90;;;;;;5085393;28;20040;-80
2021/12/04 12:14:07;;;;;;;12.30;3.05;;;7.40;99.90;;;;;;5047063;28;20049;-80
2021/12/04 12:16:41;;;;;;;18.05;4.07;;;7.40;99.90;;;;;;5063775;28;20079;-79
2021/12/04 12:19:24;;;;;;;11.27;3.33;;;7.50;99.90;;;;;;5064002;28;20044;-80
2021/12/04 12:22:02;;;;;;;14.10;4.00;;;7.40;99.90;;;;;;5068174;28;20056;-80
2021/12/04 12:36:11;;;;;;;15.10;2.03;;;7.50;99.90;;;;;;5079535;28;20044;-80
2021/12/04 12:39:15;;;;;;;9.18;2.58;;;9.50;99.90;;;;;;5064788;28;20072;-80
2021/12/04 12:41:51;;;;;;;10.45;2.00;;;7.60;99.90;;;;;;5081195;28;20401;-80
2021/12/04 12:44:26;;;;;;;6.63;2.65;;;7.60;99.90;;;;;;5081558;28;20044;-79
2021/12/04 12:46:58;;;;;;;15.02;2.75;;;7.70;99.90;;;;;;5080124;28;20051;-79
2021/12/04 12:49:37;;;;;;;14.02;3.50;;;7.90;99.90;;;;;;5083407;28;20036;-80
2021/12/04 12:52:14;;;;;;;5.22;1.70;;;7.70;99.90;;;;;;5067304;28;20056;-80
2021/12/04 12:55:12;;;;;;;;;;;;;;;;;;;;;
2021/12/04 12:57:52;;;;;;;17.00;4.85;;;7.80;99.90;;;;;;5085682;28;20045;-79
2021/12/04 13:11:54;;;;;;;;;;;;;;;;;;;;;
2021/12/04 13:14:27;;;;;;;14.60;4.57;;;8.10;99.90;;;;;;5082514;28;20056;-80
2021/12/04 13:17:16;;;;;;;9.18;3.30;;;8.20;99.90;;;;;;5082881;28;20046;-80
2021/12/04 13:20:13;;;;;;;9.43;3.78;;;8.20;99.90;;;;;;5085181;28;20052;-79
2021/12/04 13:22:56;;;;;;;11.05;5.05;;;8.20;99.90;;;;;;5045764;28;20052;-81
2021/12/04 13:25:25;;;;;;;8.55;2.25;;;8.20;99.90;;;;;;5084634;28;20067;-83
2021/12/04 13:30:25;;;;;;;14.95;4.13;;;8.10;99.90;;;;;;5086900;28;20040;-80
2021/12/04 13:32:54;;;;;;;15.45;3.72;;;8.20;99.90;;;;;;5069210;28;20057;-81
2021/12/04 13:35:24;;;;;;;16.58;3.22;;;8.20;99.90;;;;;;5067382;28;20056;-80
2021/12/04 13:38:03;;;;;;;11.38;3.78;;;8.40;99.90;;;;;;5088989;28;20045;-79
2021/12/04 13:40:39;;;;;;;13.82;3.58;;;8.50;99.90;;;;;;5088398;28;20051;-83
2021/12/04 13:43:12;;;;;;;18.55;4.53;;;8.30;99.90;;;;;;5070746;28;20055;-81
2021/12/04 13:45:44;;;;;;;10.60;3.30;;;8.20;99.90;;;;;;5088009;28;20313;-81
2021/12/04 13:48:16;;;;;;;5.90;1.88;;;8.20;99.90;;;;;;5087940;28;20040;-82
2021/12/04 13:50:47;;;;;;;5.60;2.08;;;8.20;99.90;;;;;;5088898;28;20040;-82
2021/12/04 13:53:25;;;;;;;11.98;3.38;;;8.10;99.90;;;;;;5087374;28;20050;-79
2021/12/04 13:55:57;;;;;;;15.63;3.53;;;8.30;99.90;;;;;;5069233;28;20056;-82
2021/12/04 13:59:08;;;;;;;;;;;;;;;;;;;;;
2021/12/04 14:02:26;;;;;;;9.40;3.03;;;8.20;99.90;;;;;;4998123;28;20046;-82
2021/12/04 14:05:29;;;;;;;11.25;3.13;;;8.20;99.90;;;;;;5001325;28;20057;-84
2021/12/04 14:08:06;;;;;;;4.20;2.17;;;9.10;99.90;;;;;;4986702;28;20062;-84
2021/12/04 14:11:07;;;;;;;9.55;3.05;;;8.20;99.90;;;;;;4985767;28;20081;-83
2021/12/04 14:14:38;;;;;;;;;;;;;;;;;;;;;
2021/12/04 14:18:18;;;;;;;5.30;2.50;;;8.20;99.90;;;;;;4959603;28;20063;-83
2021/12/04 14:21:39;;;;;;;10.18;3.13;;;8.30;99.90;;;;;;5015925;28;20057;-80
2021/12/04 14:25:05;;;;;;;7.53;2.67;;;8.10;99.90;;;;;;5018590;28;20054;-81
2021/12/04 14:28:26;;;;;;;10.10;2.55;;;8.10;99.90;;;;;;5027785;28;20037;-83
2021/12/04 14:32:06;;;;;;;8.38;2.63;;;8.20;99.90;;;;;;4980425;28;20050;-82
2021/12/04 14:35:28;;;;;;;6.78;2.53;;;8.10;99.90;;;;;;5004059;28;20046;-83
2021/12/04 14:39:27;;;;;;;9.55;2.08;;;8.20;99.90;;;;;;4986977;28;20049;-81
2021/12/04 14:42:36;;;;;;;8.68;3.00;;;8.10;99.90;;;;;;5005618;28;20606;-82
2021/12/04 14:46:15;;;;;;;10.05;2.95;;;8.00;99.90;;;;;;5004437;28;20062;-81
2021/12/04 14:48:54;;;;;;;15.85;2.92;;;8.00;99.90;;;;;;5077562;28;20067;-80
2021/12/04 14:51:54;;;;;;;9.27;3.72;;;7.90;99.90;;;;;;5078861;28;20044;-83
2021/12/04 14:54:56;;;;;;;11.77;3.78;;;7.90;99.90;;;;;;5082517;28;20073;-82
2021/12/04 14:57:54;;;;;;;11.10;3.55;;;7.80;99.90;;;;;;5082949;28;20219;-86
2021/12/04 15:01:06;;;;;;;10.13;2.92;;;7.90;99.90;;;;;;5076730;28;20039;-81
2021/12/04 15:04:04;;;;;;;8.88;3.40;;;7.80;99.90;;;;;;5064374;28;20045;-83
2021/12/04 15:06:41;;;;;;;9.70;3.28;;;7.80;99.90;;;;;;5096098;28;20231;-84
2021/12/04 15:09:42;;;;;;;;;;;;;;;;;;;;;
2021/12/04 15:12:27;;;;;;;9.70;3.10;;;7.70;99.90;;;;;;5083224;28;20048;-82
2021/12/04 15:15:08;;;;;;;13.82;2.40;;;7.70;99.90;;;;;;5071743;28;20035;-81
2021/12/04 15:18:35;;;;;;;;;;;;;;;;;;;;;
2021/12/04 15:21:27;;;;;;;8.13;2.50;;;8.10;99.90;;;;;;5082558;28;20036;-80
2021/12/04 15:23:58;;;;;;;13.38;3.28;;;7.50;99.90;;;;;;5086084;28;20049;-81
2021/12/04 15:26:26;;;;;;;10.07;2.63;;;7.80;99.90;;;;;;5078284;28;20056;-80
2021/12/04 15:29:00;;;;;;;14.18;2.65;;;7.70;99.90;;;;;;5079551;28;20048;-82
2021/12/04 15:31:30;;;;;;;15.23;4.13;;;7.70;99.90;;;;;;5077979;28;20056;-81
2021/12/04 15:34:05;;;;;;;8.95;2.55;;;7.50;99.90;;;;;;5078240;28;20052;-80
2021/12/04 15:37:52;;;;;;;;;;;;;;;;;;;;;
2021/12/04 15:40:35;;;;;;;11.75;3.58;;;7.60;99.90;;;;;;5074629;28;20059;-81
2021/12/04 15:43:20;;;;;;;9.95;2.75;;;7.40;99.90;;;;;;5060786;28;20143;-81
2021/12/04 15:55:11;;;;;;;13.23;3.03;;;7.20;99.90;;;;;;5078534;28;20055;-81
2021/12/04 15:58:05;;;;;;;14.10;3.28;;;7.10;99.90;;;;;;5079168;28;20053;-80
2021/12/04 16:00:53;;;;;;;6.30;1.98;;;7.20;99.90;;;;;;5093944;28;20033;-81
2021/12/04 16:03:58;;;;;;;9.52;3.58;;;7.00;99.90;;;;;;5077874;28;20044;-79
2021/12/04 16:06:58;;;;;;;8.68;3.80;;;7.50;99.90;;;;;;5080125;28;20101;-84
2021/12/04 16:09:39;;;;;;;8.85;3.05;;;8.20;99.90;;;;;;5081303;28;20041;-81
2021/12/04 16:12:22;;;;;;;8.70;2.33;;;6.80;99.90;;;;;;5081170;28;20057;-80
2021/12/04 16:14:56;;;;;;;10.00;3.05;;;7.20;99.90;;;;;;5076502;28;20056;-81
2021/12/04 16:17:25;;;;;;;19.90;4.30;;;6.90;99.90;;;;;;5064885;28;20048;-80
2021/12/04 16:20:07;;;;;;;12.48;3.65;;;6.90;99.90;;;;;;5076913;28;20048;-81
2021/12/04 16:23:07;;;;;;;10.23;3.65;;;7.30;99.90;;;;;;5061927;28;20056;-82
2021/12/04 16:25:41;;;;;;;10.85;3.25;;;6.90;99.90;;;;;;5081219;28;20051;-82
2021/12/04 16:31:27;;;;;;;19.52;4.35;;;6.80;99.90;;;;;;5079296;28;20063;-79
2021/12/04 16:39:47;;;;;;;;;;;;;;;;;;;;;
2021/12/04 16:42:44;;;;;;;10.93;3.63;;;6.70;99.90;;;;;;5000023;28;20072;-81
2021/12/04 16:45:53;;;;;;;18.50;4.25;;;6.20;99.90;;;;;;4988256;28;20049;-84
2021/12/04 16:49:35;;;;;;;10.13;4.68;;;6.70;99.90;;;;;;4992661;28;20168;-81
2021/12/04 16:56:05;;;;;;;11.88;3.22;;;6.60;99.90;;;;;;5078194;28;20074;-82
2021/12/04 16:59:36;;;;;;;6.88;3.05;;;6.50;99.90;;;;;;5078744;28;20063;-83
2021/12/04 17:02:10;;;;;;;13.95;4.55;;;6.50;99.90;;;;;;5062387;28;20057;-80
2021/12/04 17:05:07;;;;;;;17.23;5.22;;;7.40;99.90;;;;;;5053044;28;20055;-81
2021/12/04 17:07:41;;;;;;;13.63;3.67;;;6.60;99.90;;;;;;5079106;28;20040;-81
2021/12/04 17:10:58;;;;;;;16.58;3.70;;;6.60;99.90;;;;;;5053335;28;20056;-81
2021/12/04 17:13:47;;;;;;;34.83;4.75;;;6.50;99.90;;;;;;5077064;28;20052;-81
2021/12/04 17:16:26;;;;;;;6.47;2.50;;;8.10;99.90;;;;;;5074837;28;20048;-79
2021/12/04 17:19:20;;;;;;;12.60;3.40;;;6.30;99.90;;;;;;5058662;28;20049;-80
2021/12/04 17:21:51;;;;;;;15.10;4.45;;;6.30;99.90;;;;;;5076277;28;20233;-80
2021/12/04 17:24:27;;;;;;;12.68;4.07;;;6.20;99.90;;;;;;5076676;28;20049;-80